sensor_id;sensor_type;location;lat;lon;timestamp;temperature;humidity
53520;DHT22;39397;53.204;5.778;2023-05-10T00:01:23;12.20;99.90
53520;DHT22;39397;53.204;5.778;2023-05-10T00:03:49;12.30;99.90
53520;DHT22;39397;53.204;5.778;2023-05-10T00:06:15;12.20;99.90
53520;DHT22;39397;53.204;5.778;2023-05-10T00:08:41;12.30;99.90
53520;DHT22;39397;53.204;5.778;2023-05-10T00:11:07;12.30;99.90
53520;DHT22;39397;53.204;5.778;2023-05-10T00:13:32;12.30;99.90
53520;DHT22;39397;53.204;5.778;2023-05-10T00:15:58;12.20;99.90
53520;DHT22;39397;53.204;5.778;2023-05-10T00:18:24;12.30;99.90
53520;DHT22;39397;53.204;5.778;2023-05-10T00:20:50;12.30;99.90
53520;DHT22;39397;53.204;5.778;2023-05-10T00:23:15;12.30;99.90
53520;DHT22;39397;53.204;5.778;2023-05-10T00:25:41;12.20;99.90
53520;DHT22;39397;53.204;5.778;2023-05-10T00:28:07;12.20;99.90
53520;DHT22;39397;53.204;5.778;2023-05-10T00:30:32;12.20;99.90
53520;DHT22;39397;53.204;5.778;2023-05-10T00:32:58;12.20;99.90
53520;DHT22;39397;53.204;5.778;2023-05-10T00:35:24;12.20;99.90
53520;DHT22;39397;53.204;5.778;2023-05-10T00:37:49;12.20;99.90
53520;DHT22;39397;53.204;5.778;2023-05-10T00:40:15;12.10;99.90
53520;DHT22;39397;53.204;5.778;2023-05-10T00:42:41;12.10;99.90
53520;DHT22;39397;53.204;5.778;2023-05-10T00:45:07;12.10;99.90
53520;DHT22;39397;53.204;5.778;2023-05-10T00:47:33;12.10;99.90
53520;DHT22;39397;53.204;5.778;2023-05-10T00:49:59;12.10;99.90
53520;DHT22;39397;53.204;5.778;2023-05-10T00:52:27;12.10;99.90
53520;DHT22;39397;53.204;5.778;2023-05-10T00:54:53;12.00;99.90
53520;DHT22;39397;53.204;5.778;2023-05-10T00:57:19;12.00;99.90
53520;DHT22;39397;53.204;5.778;2023-05-10T00:59:46;11.90;99.90
53520;DHT22;39397;53.204;5.778;2023-05-10T01:02:11;11.90;99.90
53520;DHT22;39397;53.204;5.778;2023-05-10T01:04:38;11.90;99.90
53520;DHT22;39397;53.204;5.778;2023-05-10T01:07:05;11.90;99.90
53520;DHT22;39397;53.204;5.778;2023-05-10T01:09:31;11.80;99.90
53520;DHT22;39397;53.204;5.778;2023-05-10T01:11:57;11.90;99.90
53520;DHT22;39397;53.204;5.778;2023-05-10T01:14:24;11.90;99.90
53520;DHT22;39397;53.204;5.778;2023-05-10T01:16:52;11.80;99.90
53520;DHT22;39397;53.204;5.778;2023-05-10T01:19:22;11.90;99.90
53520;DHT22;39397;53.204;5.778;2023-05-10T01:27:35;11.80;99.90
53520;DHT22;39397;53.204;5.778;2023-05-10T01:30:30;11.80;99.90
53520;DHT22;39397;53.204;5.778;2023-05-10T01:33:18;11.80;99.90
53520;DHT22;39397;53.204;5.778;2023-05-10T01:41:19;11.80;99.90
53520;DHT22;39397;53.204;5.778;2023-05-10T01:46:33;11.90;99.90
53520;DHT22;39397;53.204;5.778;2023-05-10T01:49:00;12.00;99.90
53520;DHT22;39397;53.204;5.778;2023-05-10T01:51:37;12.20;99.90
53520;DHT22;39397;53.204;5.778;2023-05-10T01:54:05;11.80;99.90
53520;DHT22;39397;53.204;5.778;2023-05-10T01:56:33;11.90;99.90
53520;DHT22;39397;53.204;5.778;2023-05-10T01:59:00;12.50;99.90
53520;DHT22;39397;53.204;5.778;2023-05-10T02:01:29;12.00;99.90
53520;DHT22;39397;53.204;5.778;2023-05-10T02:03:55;12.00;99.90
53520;DHT22;39397;53.204;5.778;2023-05-10T02:06:24;11.90;99.90
53520;DHT22;39397;53.204;5.778;2023-05-10T02:08:51;12.00;99.90
53520;DHT22;39397;53.204;5.778;2023-05-10T02:11:18;12.00;99.90
53520;DHT22;39397;53.204;5.778;2023-05-10T02:13:50;12.00;99.90
53520;DHT22;39397;53.204;5.778;2023-05-10T02:16:18;11.90;99.90
53520;DHT22;39397;53.204;5.778;2023-05-10T02:18:48;12.20;99.90
53520;DHT22;39397;53.204;5.778;2023-05-10T02:21:15;12.10;99.90
53520;DHT22;39397;53.204;5.778;2023-05-10T02:23:47;12.10;99.90
53520;DHT22;39397;53.204;5.778;2023-05-10T02:26:14;12.10;99.90
53520;DHT22;39397;53.204;5.778;2023-05-10T02:28:40;11.90;99.90
53520;DHT22;39397;53.204;5.778;2023-05-10T02:31:08;12.10;99.90
53520;DHT22;39397;53.204;5.778;2023-05-10T02:33:38;12.30;99.90
53520;DHT22;39397;53.204;5.778;2023-05-10T02:36:07;12.10;99.90
53520;DHT22;39397;53.204;5.778;2023-05-10T02:38:33;12.00;99.90
53520;DHT22;39397;53.204;5.778;2023-05-10T02:41:00;12.10;99.90
53520;DHT22;39397;53.204;5.778;2023-05-10T02:43:30;12.10;99.90
53520;DHT22;39397;53.204;5.778;2023-05-10T02:46:03;12.30;99.90
53520;DHT22;39397;53.204;5.778;2023-05-10T02:48:29;12.10;99.90
53520;DHT22;39397;53.204;5.778;2023-05-10T02:51:02;12.00;99.90
53520;DHT22;39397;53.204;5.778;2023-05-10T02:53:34;12.10;99.90
53520;DHT22;39397;53.204;5.778;2023-05-10T02:56:05;12.10;99.90
53520;DHT22;39397;53.204;5.778;2023-05-10T02:58:33;11.90;99.90
53520;DHT22;39397;53.204;5.778;2023-05-10T03:00:59;12.00;99.90
53520;DHT22;39397;53.204;5.778;2023-05-10T03:03:33;12.00;99.90
53520;DHT22;39397;53.204;5.778;2023-05-10T03:05:58;12.20;99.90
53520;DHT22;39397;53.204;5.778;2023-05-10T03:08:26;11.90;99.90
53520;DHT22;39397;53.204;5.778;2023-05-10T03:14:10;11.90;99.90
53520;DHT22;39397;53.204;5.778;2023-05-10T03:17:10;12.00;99.90
53520;DHT22;39397;53.204;5.778;2023-05-10T03:19:49;11.90;99.90
53520;DHT22;39397;53.204;5.778;2023-05-10T03:22:32;12.00;99.90
53520;DHT22;39397;53.204;5.778;2023-05-10T03:25:06;12.00;99.90
53520;DHT22;39397;53.204;5.778;2023-05-10T03:27:42;11.90;99.90
53520;DHT22;39397;53.204;5.778;2023-05-10T03:30:12;12.10;99.90
53520;DHT22;39397;53.204;5.778;2023-05-10T03:32:44;12.00;99.90
53520;DHT22;39397;53.204;5.778;2023-05-10T03:35:10;12.20;99.90
53520;DHT22;39397;53.204;5.778;2023-05-10T03:37:37;11.90;99.90
53520;DHT22;39397;53.204;5.778;2023-05-10T03:40:04;11.80;99.90
53520;DHT22;39397;53.204;5.778;2023-05-10T03:42:29;11.80;99.90
53520;DHT22;39397;53.204;5.778;2023-05-10T03:44:56;11.80;99.90
53520;DHT22;39397;53.204;5.778;2023-05-10T03:47:21;11.80;99.90
53520;DHT22;39397;53.204;5.778;2023-05-10T03:49:47;11.80;99.90
53520;DHT22;39397;53.204;5.778;2023-05-10T03:52:13;11.80;99.90
53520;DHT22;39397;53.204;5.778;2023-05-10T03:54:38;11.80;99.90
53520;DHT22;39397;53.204;5.778;2023-05-10T03:57:05;11.80;99.90
53520;DHT22;39397;53.204;5.778;2023-05-10T03:59:31;11.80;99.90
53520;DHT22;39397;53.204;5.778;2023-05-10T04:02:00;11.90;99.90
53520;DHT22;39397;53.204;5.778;2023-05-10T04:04:26;11.80;99.90
53520;DHT22;39397;53.204;5.778;2023-05-10T04:06:51;12.00;99.90
53520;DHT22;39397;53.204;5.778;2023-05-10T04:09:17;11.80;99.90
53520;DHT22;39397;53.204;5.778;2023-05-10T04:11:43;11.80;99.90
53520;DHT22;39397;53.204;5.778;2023-05-10T04:14:09;11.90;99.90
53520;DHT22;39397;53.204;5.778;2023-05-10T04:16:34;10.40;99.90
53520;DHT22;39397;53.204;5.778;2023-05-10T04:19:00;11.80;99.90
53520;DHT22;39397;53.204;5.778;2023-05-10T04:21:26;11.80;99.90
53520;DHT22;39397;53.204;5.778;2023-05-10T04:23:55;11.70;99.90
53520;DHT22;39397;53.204;5.778;2023-05-10T04:26:20;12.40;99.90
53520;DHT22;39397;53.204;5.778;2023-05-10T04:28:47;11.70;99.90
53520;DHT22;39397;53.204;5.778;2023-05-10T04:31:13;11.90;99.90
53520;DHT22;39397;53.204;5.778;2023-05-10T04:33:38;11.80;99.90
53520;DHT22;39397;53.204;5.778;2023-05-10T04:36:16;11.80;99.90
53520;DHT22;39397;53.204;5.778;2023-05-10T04:38:42;11.80;99.90
53520;DHT22;39397;53.204;5.778;2023-05-10T04:41:11;13.70;99.90
53520;DHT22;39397;53.204;5.778;2023-05-10T04:43:38;12.00;99.90
53520;DHT22;39397;53.204;5.778;2023-05-10T04:46:12;10.20;99.90
53520;DHT22;39397;53.204;5.778;2023-05-10T04:48:38;11.80;99.90
53520;DHT22;39397;53.204;5.778;2023-05-10T04:51:03;12.10;99.90
53520;DHT22;39397;53.204;5.778;2023-05-10T04:53:30;11.80;99.90
53520;DHT22;39397;53.204;5.778;2023-05-10T04:55:56;10.20;99.90
53520;DHT22;39397;53.204;5.778;2023-05-10T04:58:21;11.80;99.90
53520;DHT22;39397;53.204;5.778;2023-05-10T05:00:47;12.10;99.90
53520;DHT22;39397;53.204;5.778;2023-05-10T05:03:12;11.80;99.90
53520;DHT22;39397;53.204;5.778;2023-05-10T05:05:38;11.80;99.90
53520;DHT22;39397;53.204;5.778;2023-05-10T05:08:05;11.90;99.90
53520;DHT22;39397;53.204;5.778;2023-05-10T05:10:30;11.90;99.90
53520;DHT22;39397;53.204;5.778;2023-05-10T05:12:56;11.90;99.90
53520;DHT22;39397;53.204;5.778;2023-05-10T05:15:22;11.80;99.90
53520;DHT22;39397;53.204;5.778;2023-05-10T05:17:48;11.90;99.90
53520;DHT22;39397;53.204;5.778;2023-05-10T05:20:13;11.80;99.90
53520;DHT22;39397;53.204;5.778;2023-05-10T05:22:39;11.80;99.90
53520;DHT22;39397;53.204;5.778;2023-05-10T05:25:05;11.90;99.90
53520;DHT22;39397;53.204;5.778;2023-05-10T05:27:32;11.90;99.90
53520;DHT22;39397;53.204;5.778;2023-05-10T05:30:09;10.90;99.90
53520;DHT22;39397;53.204;5.778;2023-05-10T05:32:35;12.10;99.90
53520;DHT22;39397;53.204;5.778;2023-05-10T05:35:01;11.90;99.90
53520;DHT22;39397;53.204;5.778;2023-05-10T05:37:26;11.90;99.90
53520;DHT22;39397;53.204;5.778;2023-05-10T05:39:52;12.00;99.90
53520;DHT22;39397;53.204;5.778;2023-05-10T05:42:20;11.00;99.90
53520;DHT22;39397;53.204;5.778;2023-05-10T05:44:46;11.90;99.90
53520;DHT22;39397;53.204;5.778;2023-05-10T05:47:12;11.30;99.90
53520;DHT22;39397;53.204;5.778;2023-05-10T05:49:47;11.90;99.90
53520;DHT22;39397;53.204;5.778;2023-05-10T05:52:13;9.80;99.90
53520;DHT22;39397;53.204;5.778;2023-05-10T05:54:50;11.90;99.90
53520;DHT22;39397;53.204;5.778;2023-05-10T05:57:25;11.90;99.90
53520;DHT22;39397;53.204;5.778;2023-05-10T06:00:03;12.00;99.90
53520;DHT22;39397;53.204;5.778;2023-05-10T06:02:32;12.10;99.90
53520;DHT22;39397;53.204;5.778;2023-05-10T06:04:58;12.10;99.90
53520;DHT22;39397;53.204;5.778;2023-05-10T06:07:24;12.10;99.90
53520;DHT22;39397;53.204;5.778;2023-05-10T06:09:50;12.40;99.90
53520;DHT22;39397;53.204;5.778;2023-05-10T06:12:16;12.60;99.90
53520;DHT22;39397;53.204;5.778;2023-05-10T06:14:42;12.30;99.90
53520;DHT22;39397;53.204;5.778;2023-05-10T06:17:08;12.50;99.90
53520;DHT22;39397;53.204;5.778;2023-05-10T06:19:34;12.30;99.90
53520;DHT22;39397;53.204;5.778;2023-05-10T06:21:59;12.30;99.90
53520;DHT22;39397;53.204;5.778;2023-05-10T06:24:25;13.50;99.90
53520;DHT22;39397;53.204;5.778;2023-05-10T06:26:52;12.20;99.90
53520;DHT22;39397;53.204;5.778;2023-05-10T06:29:18;12.30;99.90
53520;DHT22;39397;53.204;5.778;2023-05-10T06:31:43;13.30;99.90
53520;DHT22;39397;53.204;5.778;2023-05-10T06:34:09;12.30;99.90
53520;DHT22;39397;53.204;5.778;2023-05-10T06:36:37;12.70;99.90
53520;DHT22;39397;53.204;5.778;2023-05-10T06:39:03;12.40;99.90
53520;DHT22;39397;53.204;5.778;2023-05-10T06:41:28;12.50;99.90
53520;DHT22;39397;53.204;5.778;2023-05-10T06:43:55;12.50;99.90
53520;DHT22;39397;53.204;5.778;2023-05-10T06:46:41;12.50;99.90
53520;DHT22;39397;53.204;5.778;2023-05-10T06:49:08;12.60;99.90
53520;DHT22;39397;53.204;5.778;2023-05-10T06:51:34;11.30;99.90
53520;DHT22;39397;53.204;5.778;2023-05-10T06:54:00;12.60;99.90
53520;DHT22;39397;53.204;5.778;2023-05-10T06:56:25;12.80;99.90
53520;DHT22;39397;53.204;5.778;2023-05-10T06:58:51;12.60;99.90
53520;DHT22;39397;53.204;5.778;2023-05-10T07:01:17;12.60;99.90
53520;DHT22;39397;53.204;5.778;2023-05-10T07:03:42;12.70;99.90
53520;DHT22;39397;53.204;5.778;2023-05-10T07:06:08;12.60;99.90
53520;DHT22;39397;53.204;5.778;2023-05-10T07:08:34;12.80;99.90
53520;DHT22;39397;53.204;5.778;2023-05-10T07:11:07;12.50;99.90
53520;DHT22;39397;53.204;5.778;2023-05-10T07:13:33;12.60;99.90
53520;DHT22;39397;53.204;5.778;2023-05-10T07:16:00;12.50;99.90
53520;DHT22;39397;53.204;5.778;2023-05-10T07:18:27;12.60;99.90
53520;DHT22;39397;53.204;5.778;2023-05-10T07:20:53;12.80;99.90
53520;DHT22;39397;53.204;5.778;2023-05-10T07:23:19;12.60;99.90
53520;DHT22;39397;53.204;5.778;2023-05-10T07:25:49;12.60;99.90
53520;DHT22;39397;53.204;5.778;2023-05-10T07:28:15;12.60;99.90
53520;DHT22;39397;53.204;5.778;2023-05-10T07:30:42;12.60;99.90
53520;DHT22;39397;53.204;5.778;2023-05-10T07:33:09;12.70;99.90
53520;DHT22;39397;53.204;5.778;2023-05-10T07:35:35;12.70;99.90
53520;DHT22;39397;53.204;5.778;2023-05-10T07:38:01;12.70;99.90
53520;DHT22;39397;53.204;5.778;2023-05-10T07:40:30;12.80;99.90
53520;DHT22;39397;53.204;5.778;2023-05-10T07:42:56;12.80;99.90
53520;DHT22;39397;53.204;5.778;2023-05-10T07:45:22;12.90;99.90
53520;DHT22;39397;53.204;5.778;2023-05-10T07:47:48;13.00;99.90
53520;DHT22;39397;53.204;5.778;2023-05-10T07:50:14;13.10;99.90
53520;DHT22;39397;53.204;5.778;2023-05-10T07:52:40;13.10;99.90
53520;DHT22;39397;53.204;5.778;2023-05-10T07:55:06;13.20;99.90
53520;DHT22;39397;53.204;5.778;2023-05-10T07:57:33;13.30;99.90
53520;DHT22;39397;53.204;5.778;2023-05-10T07:59:59;13.30;99.90
53520;DHT22;39397;53.204;5.778;2023-05-10T08:02:25;13.40;99.90
53520;DHT22;39397;53.204;5.778;2023-05-10T08:04:50;13.50;99.90
53520;DHT22;39397;53.204;5.778;2023-05-10T08:07:17;13.40;99.90
53520;DHT22;39397;53.204;5.778;2023-05-10T08:09:42;13.50;99.90
53520;DHT22;39397;53.204;5.778;2023-05-10T08:12:08;13.60;99.90
53520;DHT22;39397;53.204;5.778;2023-05-10T08:14:34;13.60;99.90
53520;DHT22;39397;53.204;5.778;2023-05-10T08:17:02;13.70;99.90
53520;DHT22;39397;53.204;5.778;2023-05-10T08:19:28;13.50;99.90
53520;DHT22;39397;53.204;5.778;2023-05-10T08:21:54;13.50;99.90
53520;DHT22;39397;53.204;5.778;2023-05-10T08:24:21;13.40;99.90
53520;DHT22;39397;53.204;5.778;2023-05-10T08:26:47;13.60;99.90
53520;DHT22;39397;53.204;5.778;2023-05-10T08:29:14;13.50;99.90
53520;DHT22;39397;53.204;5.778;2023-05-10T08:31:39;13.50;99.90
53520;DHT22;39397;53.204;5.778;2023-05-10T08:34:05;13.50;99.90
53520;DHT22;39397;53.204;5.778;2023-05-10T08:36:31;13.50;99.90
53520;DHT22;39397;53.204;5.778;2023-05-10T08:38:58;13.40;99.90
53520;DHT22;39397;53.204;5.778;2023-05-10T08:41:24;13.50;99.90
53520;DHT22;39397;53.204;5.778;2023-05-10T08:43:52;13.60;99.90
53520;DHT22;39397;53.204;5.778;2023-05-10T08:46:19;13.60;99.90
53520;DHT22;39397;53.204;5.778;2023-05-10T08:48:47;13.60;99.90
53520;DHT22;39397;53.204;5.778;2023-05-10T08:51:14;13.80;99.90
53520;DHT22;39397;53.204;5.778;2023-05-10T08:53:41;13.90;99.90
53520;DHT22;39397;53.204;5.778;2023-05-10T08:56:07;13.90;99.90
53520;DHT22;39397;53.204;5.778;2023-05-10T08:58:33;14.00;99.90
53520;DHT22;39397;53.204;5.778;2023-05-10T09:00:59;14.10;99.90
53520;DHT22;39397;53.204;5.778;2023-05-10T09:03:26;14.20;99.90
53520;DHT22;39397;53.204;5.778;2023-05-10T09:05:52;14.40;99.90
53520;DHT22;39397;53.204;5.778;2023-05-10T09:08:18;14.30;99.90
53520;DHT22;39397;53.204;5.778;2023-05-10T09:10:44;14.30;99.90
53520;DHT22;39397;53.204;5.778;2023-05-10T09:13:14;14.40;99.90
53520;DHT22;39397;53.204;5.778;2023-05-10T09:15:40;14.40;99.90
53520;DHT22;39397;53.204;5.778;2023-05-10T09:18:06;14.40;99.90
53520;DHT22;39397;53.204;5.778;2023-05-10T09:20:32;14.50;99.90
53520;DHT22;39397;53.204;5.778;2023-05-10T09:22:58;14.40;99.90
53520;DHT22;39397;53.204;5.778;2023-05-10T09:25:24;14.40;99.90
53520;DHT22;39397;53.204;5.778;2023-05-10T09:27:49;14.50;99.90
53520;DHT22;39397;53.204;5.778;2023-05-10T09:30:17;14.50;99.90
53520;DHT22;39397;53.204;5.778;2023-05-10T09:32:48;14.50;99.90
53520;DHT22;39397;53.204;5.778;2023-05-10T09:35:17;14.50;99.90
53520;DHT22;39397;53.204;5.778;2023-05-10T09:37:45;14.50;99.90
53520;DHT22;39397;53.204;5.778;2023-05-10T09:40:18;14.30;99.90
53520;DHT22;39397;53.204;5.778;2023-05-10T09:43:03;14.40;99.90
53520;DHT22;39397;53.204;5.778;2023-05-10T09:45:33;14.20;99.90
53520;DHT22;39397;53.204;5.778;2023-05-10T09:47:59;14.30;99.90
53520;DHT22;39397;53.204;5.778;2023-05-10T09:50:26;14.40;99.90
53520;DHT22;39397;53.204;5.778;2023-05-10T09:53:00;14.40;99.90
53520;DHT22;39397;53.204;5.778;2023-05-10T09:55:42;14.40;99.90
53520;DHT22;39397;53.204;5.778;2023-05-10T09:58:10;14.50;99.90
53520;DHT22;39397;53.204;5.778;2023-05-10T10:00:41;12.90;99.90
53520;DHT22;39397;53.204;5.778;2023-05-10T10:03:15;14.50;99.90
53520;DHT22;39397;53.204;5.778;2023-05-10T10:05:43;14.60;99.90
53520;DHT22;39397;53.204;5.778;2023-05-10T10:08:09;14.60;99.90
53520;DHT22;39397;53.204;5.778;2023-05-10T10:10:35;14.50;99.90
53520;DHT22;39397;53.204;5.778;2023-05-10T10:13:01;14.40;99.90
53520;DHT22;39397;53.204;5.778;2023-05-10T10:15:27;14.50;99.90
53520;DHT22;39397;53.204;5.778;2023-05-10T10:17:54;14.70;99.90
53520;DHT22;39397;53.204;5.778;2023-05-10T10:20:21;14.70;99.90
53520;DHT22;39397;53.204;5.778;2023-05-10T10:22:47;14.70;99.90
53520;DHT22;39397;53.204;5.778;2023-05-10T10:25:15;14.80;99.90
53520;DHT22;39397;53.204;5.778;2023-05-10T10:28:05;15.00;99.90
53520;DHT22;39397;53.204;5.778;2023-05-10T10:30:42;15.20;99.90
53520;DHT22;39397;53.204;5.778;2023-05-10T10:35:40;15.40;99.90
53520;DHT22;39397;53.204;5.778;2023-05-10T10:38:08;15.80;99.90
53520;DHT22;39397;53.204;5.778;2023-05-10T10:40:34;15.80;99.90
53520;DHT22;39397;53.204;5.778;2023-05-10T10:43:23;16.20;99.90
53520;DHT22;39397;53.204;5.778;2023-05-10T10:46:16;15.90;99.90
53520;DHT22;39397;53.204;5.778;2023-05-10T10:48:50;16.10;99.90
53520;DHT22;39397;53.204;5.778;2023-05-10T10:51:17;16.20;99.90
53520;DHT22;39397;53.204;5.778;2023-05-10T10:53:43;16.50;99.90
53520;DHT22;39397;53.204;5.778;2023-05-10T10:56:12;16.40;99.90
53520;DHT22;39397;53.204;5.778;2023-05-10T10:58:49;16.50;99.90
53520;DHT22;39397;53.204;5.778;2023-05-10T11:01:18;16.50;99.90
53520;DHT22;39397;53.204;5.778;2023-05-10T11:06:35;16.10;99.90
53520;DHT22;39397;53.204;5.778;2023-05-10T11:09:12;16.20;99.90
53520;DHT22;39397;53.204;5.778;2023-05-10T11:11:54;16.20;99.90
53520;DHT22;39397;53.204;5.778;2023-05-10T11:14:23;16.40;99.90
53520;DHT22;39397;53.204;5.778;2023-05-10T11:16:49;16.40;99.90
53520;DHT22;39397;53.204;5.778;2023-05-10T11:19:17;16.40;99.90
53520;DHT22;39397;53.204;5.778;2023-05-10T11:22:11;16.60;99.90
53520;DHT22;39397;53.204;5.778;2023-05-10T11:24:38;16.60;99.90
53520;DHT22;39397;53.204;5.778;2023-05-10T11:27:05;16.70;99.90
53520;DHT22;39397;53.204;5.778;2023-05-10T11:29:30;16.60;99.90
53520;DHT22;39397;53.204;5.778;2023-05-10T11:31:57;16.60;99.90
53520;DHT22;39397;53.204;5.778;2023-05-10T11:34:28;16.80;99.90
53520;DHT22;39397;53.204;5.778;2023-05-10T11:36:56;17.40;99.90
53520;DHT22;39397;53.204;5.778;2023-05-10T11:39:30;16.90;99.90
53520;DHT22;39397;53.204;5.778;2023-05-10T11:41:57;16.80;99.90
53520;DHT22;39397;53.204;5.778;2023-05-10T11:44:28;16.80;99.90
53520;DHT22;39397;53.204;5.778;2023-05-10T11:46:57;16.80;99.90
53520;DHT22;39397;53.204;5.778;2023-05-10T11:49:24;16.90;99.90
53520;DHT22;39397;53.204;5.778;2023-05-10T11:51:51;17.00;99.90
53520;DHT22;39397;53.204;5.778;2023-05-10T11:54:17;17.00;99.90
53520;DHT22;39397;53.204;5.778;2023-05-10T11:56:42;17.20;99.90
53520;DHT22;39397;53.204;5.778;2023-05-10T11:59:08;17.40;99.90
53520;DHT22;39397;53.204;5.778;2023-05-10T12:01:34;17.40;99.90
53520;DHT22;39397;53.204;5.778;2023-05-10T12:04:03;17.70;99.90
53520;DHT22;39397;53.204;5.778;2023-05-10T12:06:31;17.70;99.90
53520;DHT22;39397;53.204;5.778;2023-05-10T12:08:57;17.80;99.90
53520;DHT22;39397;53.204;5.778;2023-05-10T12:11:27;17.80;99.90
53520;DHT22;39397;53.204;5.778;2023-05-10T12:13:54;18.00;99.90
53520;DHT22;39397;53.204;5.778;2023-05-10T12:16:22;18.20;99.90
53520;DHT22;39397;53.204;5.778;2023-05-10T12:18:56;18.10;99.90
53520;DHT22;39397;53.204;5.778;2023-05-10T12:21:23;18.10;99.90
53520;DHT22;39397;53.204;5.778;2023-05-10T12:23:51;18.20;99.90
53520;DHT22;39397;53.204;5.778;2023-05-10T12:26:17;18.40;99.90
53520;DHT22;39397;53.204;5.778;2023-05-10T12:28:43;18.20;99.90
53520;DHT22;39397;53.204;5.778;2023-05-10T12:31:09;18.10;99.90
53520;DHT22;39397;53.204;5.778;2023-05-10T12:33:41;17.70;99.90
53520;DHT22;39397;53.204;5.778;2023-05-10T12:36:12;17.80;99.90
53520;DHT22;39397;53.204;5.778;2023-05-10T12:38:42;17.60;99.90
53520;DHT22;39397;53.204;5.778;2023-05-10T12:41:18;17.50;99.90
53520;DHT22;39397;53.204;5.778;2023-05-10T12:43:44;17.60;99.90
53520;DHT22;39397;53.204;5.778;2023-05-10T12:46:15;17.40;99.90
53520;DHT22;39397;53.204;5.778;2023-05-10T12:48:43;17.50;99.90
53520;DHT22;39397;53.204;5.778;2023-05-10T12:51:09;17.50;99.90
53520;DHT22;39397;53.204;5.778;2023-05-10T12:53:38;17.50;99.90
53520;DHT22;39397;53.204;5.778;2023-05-10T12:56:04;17.40;99.90
53520;DHT22;39397;53.204;5.778;2023-05-10T12:58:30;17.60;99.90
53520;DHT22;39397;53.204;5.778;2023-05-10T13:00:57;17.70;99.90
53520;DHT22;39397;53.204;5.778;2023-05-10T13:03:23;18.00;99.90
53520;DHT22;39397;53.204;5.778;2023-05-10T13:05:49;18.00;99.90
53520;DHT22;39397;53.204;5.778;2023-05-10T13:08:14;17.80;99.90
53520;DHT22;39397;53.204;5.778;2023-05-10T13:10:40;17.80;99.90
53520;DHT22;39397;53.204;5.778;2023-05-10T13:13:06;17.90;99.90
53520;DHT22;39397;53.204;5.778;2023-05-10T13:15:33;17.90;99.90
53520;DHT22;39397;53.204;5.778;2023-05-10T13:17:58;17.90;99.90
53520;DHT22;39397;53.204;5.778;2023-05-10T13:20:25;17.90;99.90
53520;DHT22;39397;53.204;5.778;2023-05-10T13:22:50;17.90;99.90
53520;DHT22;39397;53.204;5.778;2023-05-10T13:25:16;18.00;99.90
53520;DHT22;39397;53.204;5.778;2023-05-10T13:27:42;18.00;99.90
53520;DHT22;39397;53.204;5.778;2023-05-10T13:30:09;18.00;99.90
53520;DHT22;39397;53.204;5.778;2023-05-10T13:32:35;17.80;99.90
53520;DHT22;39397;53.204;5.778;2023-05-10T13:35:01;18.00;99.90
53520;DHT22;39397;53.204;5.778;2023-05-10T13:37:29;18.10;99.90
53520;DHT22;39397;53.204;5.778;2023-05-10T13:39:55;18.00;99.90
53520;DHT22;39397;53.204;5.778;2023-05-10T13:42:22;17.80;99.90
53520;DHT22;39397;53.204;5.778;2023-05-10T13:44:48;17.60;99.90
53520;DHT22;39397;53.204;5.778;2023-05-10T13:47:14;17.30;99.90
53520;DHT22;39397;53.204;5.778;2023-05-10T13:49:40;17.40;99.90
53520;DHT22;39397;53.204;5.778;2023-05-10T13:52:05;17.40;99.90
53520;DHT22;39397;53.204;5.778;2023-05-10T13:54:36;17.30;99.90
53520;DHT22;39397;53.204;5.778;2023-05-10T13:57:02;17.30;99.90
53520;DHT22;39397;53.204;5.778;2023-05-10T13:59:29;17.20;99.90
53520;DHT22;39397;53.204;5.778;2023-05-10T14:01:57;17.30;99.90
53520;DHT22;39397;53.204;5.778;2023-05-10T14:04:23;17.30;99.90
53520;DHT22;39397;53.204;5.778;2023-05-10T14:06:48;17.30;99.90
53520;DHT22;39397;53.204;5.778;2023-05-10T14:09:14;17.30;99.90
53520;DHT22;39397;53.204;5.778;2023-05-10T14:11:40;17.40;99.90
53520;DHT22;39397;53.204;5.778;2023-05-10T14:14:09;17.40;99.90
53520;DHT22;39397;53.204;5.778;2023-05-10T14:16:35;17.30;99.90
53520;DHT22;39397;53.204;5.778;2023-05-10T14:19:01;16.60;99.90
53520;DHT22;39397;53.204;5.778;2023-05-10T14:21:27;17.20;99.90
53520;DHT22;39397;53.204;5.778;2023-05-10T14:23:54;17.20;99.90
53520;DHT22;39397;53.204;5.778;2023-05-10T14:26:21;17.30;99.90
53520;DHT22;39397;53.204;5.778;2023-05-10T14:28:47;17.50;99.90
53520;DHT22;39397;53.204;5.778;2023-05-10T14:31:12;17.60;99.90
53520;DHT22;39397;53.204;5.778;2023-05-10T14:33:39;17.70;99.90
53520;DHT22;39397;53.204;5.778;2023-05-10T14:36:06;17.50;99.90
53520;DHT22;39397;53.204;5.778;2023-05-10T14:38:32;17.40;99.90
53520;DHT22;39397;53.204;5.778;2023-05-10T14:40:58;17.30;99.90
53520;DHT22;39397;53.204;5.778;2023-05-10T14:43:24;17.30;99.90
53520;DHT22;39397;53.204;5.778;2023-05-10T14:45:50;17.20;99.90
53520;DHT22;39397;53.204;5.778;2023-05-10T14:48:15;17.10;99.90
53520;DHT22;39397;53.204;5.778;2023-05-10T14:50:43;17.00;99.90
53520;DHT22;39397;53.204;5.778;2023-05-10T14:53:09;16.90;99.90
53520;DHT22;39397;53.204;5.778;2023-05-10T14:55:35;16.90;99.90
53520;DHT22;39397;53.204;5.778;2023-05-10T14:58:02;17.00;99.90
53520;DHT22;39397;53.204;5.778;2023-05-10T15:00:29;17.00;99.90
53520;DHT22;39397;53.204;5.778;2023-05-10T15:02:54;16.80;99.90
53520;DHT22;39397;53.204;5.778;2023-05-10T15:05:20;16.80;99.90
53520;DHT22;39397;53.204;5.778;2023-05-10T15:07:46;16.90;99.90
53520;DHT22;39397;53.204;5.778;2023-05-10T15:10:12;17.60;99.90
53520;DHT22;39397;53.204;5.778;2023-05-10T15:12:38;17.10;99.90
53520;DHT22;39397;53.204;5.778;2023-05-10T15:15:05;17.30;99.90
53520;DHT22;39397;53.204;5.778;2023-05-10T15:17:31;17.20;99.90
53520;DHT22;39397;53.204;5.778;2023-05-10T15:19:57;17.30;99.90
53520;DHT22;39397;53.204;5.778;2023-05-10T15:22:23;17.40;99.90
53520;DHT22;39397;53.204;5.778;2023-05-10T15:24:49;17.50;99.90
53520;DHT22;39397;53.204;5.778;2023-05-10T15:27:15;17.70;99.90
53520;DHT22;39397;53.204;5.778;2023-05-10T15:29:41;17.70;99.90
53520;DHT22;39397;53.204;5.778;2023-05-10T15:32:07;17.50;99.90
53520;DHT22;39397;53.204;5.778;2023-05-10T15:34:33;17.40;99.90
53520;DHT22;39397;53.204;5.778;2023-05-10T15:36:58;17.60;99.90
53520;DHT22;39397;53.204;5.778;2023-05-10T15:39:24;17.70;99.90
53520;DHT22;39397;53.204;5.778;2023-05-10T15:41:50;17.60;99.90
53520;DHT22;39397;53.204;5.778;2023-05-10T15:44:16;17.60;99.90
53520;DHT22;39397;53.204;5.778;2023-05-10T15:46:42;17.60;99.90
53520;DHT22;39397;53.204;5.778;2023-05-10T15:49:07;17.40;99.90
53520;DHT22;39397;53.204;5.778;2023-05-10T15:51:33;17.20;99.90
53520;DHT22;39397;53.204;5.778;2023-05-10T15:53:59;16.80;99.90
53520;DHT22;39397;53.204;5.778;2023-05-10T15:56:27;16.50;99.90